Time;durP1;ratioP1;P1;durP2;ratioP2;P2;SDS_P1;SDS_P2;PMS_P1;PMS_P2;Temp;Humidity;BMP_temperature;BMP_pressure;BME280_temperature;BME280_humidity;BME280_pressure;Samples;Min_cycle;Max_cycle;Signal;HPM_P1;HPM_P2
2021/12/24 00:02:11;;;;;;;;;;;;;;;;;;5081241;28;19953;-66
2021/12/24 00:04:41;;;;;;;;;;;;;;;;;;5086904;28;19932;-66
2021/12/24 00:07:10;;;;;;;;;;;;;;;;;;5088191;28;20269;-66
2021/12/24 00:09:40;;;;;;;;;;;;;;;;;;5083472;28;19939;-66
2021/12/24 00:12:16;;;;;;;;;;;;;;;;;;5074277;28;20245;-66
2021/12/24 00:14:51;;;;;;;;;;;;;;;;;;5070885;28;19927;-67
2021/12/24 00:17:29;;;;;;;;;;;;;;;;;;5085419;28;19996;-67
2021/12/24 00:20:27;;;;;;;;;;;;;;;;;;5075230;28;20357;-67
2021/12/24 00:36:34;;;;;;;;;;;;;;;;;;5079186;28;19924;-66
2021/12/24 00:39:07;;;;;;;;;;;;;;;;;;5084244;28;20527;-66
2021/12/24 00:41:40;;;;;;;;;;;;;;;;;;5080479;28;19935;-66
2021/12/24 00:44:09;;;;;;;;;;;;;;;;;;5081689;28;19932;-66
2021/12/24 00:46:38;;;;;;;;;;;;;;;;;;5083936;28;19935;-66
2021/12/24 00:49:21;;;;;;;;;;;;;;;;;;5083223;28;20170;-66
2021/12/24 00:52:06;;;;;;;;;;;;;;;;;;5070832;28;19939;-67
2021/12/24 00:57:34;;;;;;;;;;;;;;;;;;5080595;28;19936;-66
2021/12/24 01:00:03;;;;;;;;;;;;;;;;;;5082793;28;19950;-66
2021/12/24 01:02:35;;;;;;;;;;;;;;;;;;5084477;28;20004;-66
2021/12/24 01:05:06;;;;;;;;;;;;;;;;;;5079938;28;20472;-66
2021/12/24 01:07:37;;;;;;;;;;;;;;;;;;5081991;28;19932;-66
2021/12/24 01:10:07;;;;;;;;;;;;;;;;;;5071650;28;19977;-66
2021/12/24 01:12:37;;;;;;;;;;;;;;;;;;5082605;28;19935;-66
2021/12/24 01:15:11;;;;;;;;;;;;;;;;;;5077826;28;19924;-66
2021/12/24 01:18:06;;;;;;;;;;;;;;;;;;5084389;28;19931;-66
2021/12/24 01:20:48;;;;;;;;;;;;;;;;;;5089969;28;19924;-66
2021/12/24 01:26:20;;;;;;;;;;;;;;;;;;5081151;28;19955;-66
2021/12/24 01:42:48;;;;;;;;;;;;;;;;;;5091455;28;19954;-66
2021/12/24 01:45:19;;;;;;;;;;;;;;;;;;5088289;28;19928;-66
2021/12/24 01:47:47;;;;;;;;;;;;;;;;;;5088182;28;19924;-66
2021/12/24 01:50:14;;;;;;;;;;;;;;;;;;5092661;28;19924;-66
2021/12/24 01:52:44;;;;;;;;;;;;;;;;;;5089418;28;20485;-66
2021/12/24 01:55:13;;;;;;;;;;;;;;;;;;5082875;28;19972;-65
2021/12/24 01:57:41;;;;;;;;;;;;;;;;;;5087686;28;19924;-66
2021/12/24 02:00:10;;;;;;;;;;;;;;;;;;5083586;28;19931;-66
2021/12/24 02:02:52;;;;;;;;;;;;;;;;;;5075550;28;19956;-66
2021/12/24 02:05:25;;;;;;;;;;;;;;;;;;5069408;28;21273;-66
2021/12/24 02:07:54;;;;;;;;;;;;;;;;;;5077861;28;19925;-66
2021/12/24 02:10:22;;;;;;;;;;;;;;;;;;5063302;28;19932;-66
2021/12/24 02:12:49;;;;;;;;;;;;;;;;;;5063491;28;19986;-66
2021/12/24 02:15:45;;;;;;;;;;;;;;;;;;5066833;28;19933;-66
2021/12/24 02:28:12;;;;;;;;;;;;;;;;;;5052693;28;19924;-66
2021/12/24 02:29:46;;;;;;;;;;;;;;;;;;5063981;28;20087;-66
2021/12/24 02:32:15;;;;;;;;;;;;;;;;;;5058030;28;20010;-66
2021/12/24 02:34:45;;;;;;;;;;;;;;;;;;5061590;28;19929;-66
2021/12/24 02:37:16;;;;;;;;;;;;;;;;;;5046844;28;19966;-66
2021/12/24 02:39:45;;;;;;;;;;;;;;;;;;5062720;28;19933;-66
2021/12/24 02:42:13;;;;;;;;;;;;;;;;;;5046907;28;20438;-66
2021/12/24 02:44:42;;;;;;;;;;;;;;;;;;5063126;28;19925;-66
2021/12/24 02:55:20;;;;;;;;;;;;;;;;;;5064482;28;19939;-66
2021/12/24 02:57:49;;;;;;;;;;;;;;;;;;5064966;28;19925;-66
2021/12/24 03:00:25;;;;;;;;;;;;;;;;;;5060224;28;19925;-66
2021/12/24 03:02:56;;;;;;;;;;;;;;;;;;5061947;28;19964;-66
2021/12/24 03:05:33;;;;;;;;;;;;;;;;;;5053175;28;19936;-66
2021/12/24 03:08:02;;;;;;;;;;;;;;;;;;5069032;28;19931;-66
2021/12/24 03:10:31;;;;;;;;;;;;;;;;;;5084213;28;19974;-66
2021/12/24 03:13:03;;;;;;;;;;;;;;;;;;5083484;28;20403;-66
2021/12/24 03:15:34;;;;;;;;;;;;;;;;;;5069696;28;19924;-66
2021/12/24 03:18:08;;;;;;;;;;;;;;;;;;5082082;28;19985;-66
2021/12/24 03:20:39;;;;;;;;;;;;;;;;;;5084376;28;20437;-67
2021/12/24 03:25:37;;;;;;;;;;;;;;;;;;5085755;28;19928;-66
2021/12/24 03:28:05;;;;;;;;;;;;;;;;;;5080012;28;19931;-66
2021/12/24 03:30:38;;;;;;;;;;;;;;;;;;5077709;28;19982;-66
2021/12/24 03:33:09;;;;;;;;;;;;;;;;;;5080984;28;19924;-66
2021/12/24 03:35:40;;;;;;;;;;;;;;;;;;5083827;28;19932;-66
2021/12/24 03:38:11;;;;;;;;;;;;;;;;;;5070888;28;19924;-66
2021/12/24 03:40:39;;;;;;;;;;;;;;;;;;5066910;28;19935;-66
2021/12/24 03:43:10;;;;;;;;;;;;;;;;;;5072823;28;19935;-66
2021/12/24 03:46:00;;;;;;;;;;;;;;;;;;5078771;28;19935;-66
2021/12/24 03:48:47;;;;;;;;;;;;;;;;;;5080569;28;19924;-66
2021/12/24 03:56:41;;;;;;;;;;;;;;;;;;5084495;28;19959;-66
2021/12/24 03:59:10;;;;;;;;;;;;;;;;;;5086297;28;19923;-66
2021/12/24 04:01:41;;;;;;;;;;;;;;;;;;5080232;28;19928;-66
2021/12/24 04:04:23;;;;;;;;;;;;;;;;;;5086514;28;19928;-66
2021/12/24 04:07:01;;;;;;;;;;;;;;;;;;5080178;28;19939;-66
2021/12/24 04:09:32;;;;;;;;;;;;;;;;;;5086376;28;19924;-66
2021/12/24 04:11:59;;;;;;;;;;;;;;;;;;5082957;28;19949;-66
2021/12/24 04:14:26;;;;;;;;;;;;;;;;;;5078940;28;19933;-66
2021/12/24 04:16:54;;;;;;;;;;;;;;;;;;5077781;28;19924;-66
2021/12/24 04:24:59;;;;;;;;;;;;;;;;;;5080810;28;19924;-66
2021/12/24 04:27:30;;;;;;;;;;;;;;;;;;5086957;28;19924;-66
2021/12/24 04:30:13;;;;;;;;;;;;;;;;;;5086175;28;19924;-66
2021/12/24 04:33:00;;;;;;;;;;;;;;;;;;5077864;28;19935;-66
2021/12/24 04:35:39;;;;;;;;;;;;;;;;;;5083283;28;19928;-66
2021/12/24 04:38:46;;;;;;;;;;;;;;;;;;5076713;28;20050;-66
2021/12/24 04:52:50;;;;;;;;;;;;;;;;;;5073226;28;19928;-66
2021/12/24 05:03:48;;;;;;;;;;;;;;;;;;5088878;28;19924;-66
2021/12/24 05:08:55;;;;;;;;;;;;;;;;;;5081391;28;19924;-66
2021/12/24 05:11:26;;;;;;;;;;;;;;;;;;5077238;28;19933;-66
2021/12/24 05:13:55;;;;;;;;;;;;;;;;;;5085367;28;19943;-66
2021/12/24 05:16:26;;;;;;;;;;;;;;;;;;5090658;28;20441;-66
2021/12/24 05:21:42;;;;;;;;;;;;;;;;;;5088236;28;19929;-67
2021/12/24 05:24:14;;;;;;;;;;;;;;;;;;5082258;28;19924;-67
2021/12/24 05:26:46;;;;;;;;;;;;;;;;;;5086851;28;20837;-67
2021/12/24 05:29:17;;;;;;;;;;;;;;;;;;5087680;28;19930;-67
2021/12/24 05:31:48;;;;;;;;;;;;;;;;;;5093909;28;19924;-67
2021/12/24 05:34:31;;;;;;;;;;;;;;;;;;5081202;28;19932;-67
2021/12/24 05:37:02;;;;;;;;;;;;;;;;;;5079989;28;20344;-66
2021/12/24 05:39:34;;;;;;;;;;;;;;;;;;5062635;28;19924;-67
2021/12/24 05:42:03;;;;;;;;;;;;;;;;;;5084330;28;19924;-67
2021/12/24 05:44:33;;;;;;;;;;;;;;;;;;5072023;28;19928;-67
2021/12/24 05:47:05;;;;;;;;;;;;;;;;;;5083820;28;20315;-67
2021/12/24 05:49:34;;;;;;;;;;;;;;;;;;5082467;28;19933;-66
2021/12/24 05:52:05;;;;;;;;;;;;;;;;;;5086087;28;20356;-66
2021/12/24 05:54:36;;;;;;;;;;;;;;;;;;5075812;28;19969;-66
2021/12/24 05:57:07;;;;;;;;;;;;;;;;;;5086939;28;19925;-66
2021/12/24 05:59:36;;;;;;;;;;;;;;;;;;5084046;28;19924;-66
2021/12/24 06:02:06;;;;;;;;;;;;;;;;;;5086495;28;20357;-66
2021/12/24 06:04:39;;;;;;;;;;;;;;;;;;5094414;28;19931;-66
2021/12/24 06:07:10;;;;;;;;;;;;;;;;;;5066907;28;19924;-66
2021/12/24 06:09:41;;;;;;;;;;;;;;;;;;5071210;28;19924;-67
2021/12/24 06:12:11;;;;;;;;;;;;;;;;;;5059915;28;19940;-66
2021/12/24 06:14:46;;;;;;;;;;;;;;;;;;5053356;28;20373;-66
2021/12/24 06:17:18;;;;;;;;;;;;;;;;;;5062763;28;19944;-66
2021/12/24 06:19:49;;;;;;;;;;;;;;;;;;5064740;28;19939;-66
2021/12/24 06:22:16;;;;;;;;;;;;;;;;;;5058421;28;19993;-66
2021/12/24 06:24:46;;;;;;;;;;;;;;;;;;5066619;28;19935;-66
2021/12/24 06:27:17;;;;;;;;;;;;;;;;;;5055395;28;19925;-66
2021/12/24 06:29:48;;;;;;;;;;;;;;;;;;5059023;28;21459;-66
2021/12/24 06:32:17;;;;;;;;;;;;;;;;;;5059294;28;19935;-66
2021/12/24 06:34:49;;;;;;;;;;;;;;;;;;5065597;28;19971;-66
2021/12/24 06:37:17;;;;;;;;;;;;;;;;;;5064283;28;19931;-66
2021/12/24 06:39:49;;;;;;;;;;;;;;;;;;5050971;28;20409;-66
2021/12/24 06:42:23;;;;;;;;;;;;;;;;;;5063494;28;19932;-66
2021/12/24 06:44:54;;;;;;;;;;;;;;;;;;5068145;28;19951;-66
2021/12/24 06:47:26;;;;;;;;;;;;;;;;;;5064312;28;19932;-67
2021/12/24 06:49:55;;;;;;;;;;;;;;;;;;5067141;28;19985;-67
2021/12/24 06:52:25;;;;;;;;;;;;;;;;;;5066590;28;19925;-66
2021/12/24 06:54:55;;;;;;;;;;;;;;;;;;5062230;28;19928;-66
2021/12/24 06:57:25;;;;;;;;;;;;;;;;;;5070931;28;20019;-66
2021/12/24 06:59:55;;;;;;;;;;;;;;;;;;5063549;28;19924;-66
2021/12/24 07:02:23;;;;;;;;;;;;;;;;;;5067139;28;20023;-66
2021/12/24 07:04:54;;;;;;;;;;;;;;;;;;5068143;28;19929;-66
2021/12/24 07:07:23;;;;;;;;;;;;;;;;;;5052117;28;19928;-66
2021/12/24 07:09:53;;;;;;;;;;;;;;;;;;5071200;28;19940;-66
2021/12/24 07:12:20;;;;;;;;;;;;;;;;;;5080473;28;19939;-66
2021/12/24 07:14:51;;;;;;;;;;;;;;;;;;5086857;28;20376;-66
2021/12/24 07:17:19;;;;;;;;;;;;;;;;;;5085230;28;19934;-66
2021/12/24 07:19:49;;;;;;;;;;;;;;;;;;5085050;28;20155;-66
2021/12/24 07:22:18;;;;;;;;;;;;;;;;;;5083452;28;19930;-66
2021/12/24 07:24:49;;;;;;;;;;;;;;;;;;5082939;28;19932;-66
2021/12/24 07:27:21;;;;;;;;;;;;;;;;;;5085222;28;19924;-66
2021/12/24 07:29:52;;;;;;;;;;;;;;;;;;5082766;28;20274;-66
2021/12/24 07:32:22;;;;;;;;;;;;;;;;;;5075486;28;19928;-67
2021/12/24 07:34:51;;;;;;;;;;;;;;;;;;5085019;28;19933;-67
2021/12/24 07:37:21;;;;;;;;;;;;;;;;;;5097527;28;20452;-66
2021/12/24 07:39:54;;;;;;;;;;;;;;;;;;5082561;28;19936;-66
2021/12/24 07:42:26;;;;;;;;;;;;;;;;;;5054829;28;19936;-67
2021/12/24 07:44:55;;;;;;;;;;;;;;;;;;5081698;28;19992;-67
2021/12/24 07:47:32;;;;;;;;;;;;;;;;;;5084720;28;20094;-67
2021/12/24 07:50:05;;;;;;;;;;;;;;;;;;5081689;28;20391;-67
2021/12/24 07:52:36;;;;;;;;;;;;;;;;;;5086010;28;19934;-66
2021/12/24 07:55:09;;;;;;;;;;;;;;;;;;5076437;28;20060;-67
2021/12/24 07:57:46;;;;;;;;;;;;;;;;;;5085035;28;19927;-67
2021/12/24 08:00:17;;;;;;;;;;;;;;;;;;5076528;28;19931;-67
2021/12/24 08:02:46;;;;;;;;;;;;;;;;;;5079775;28;19924;-68
2021/12/24 08:05:23;;;;;;;;;;;;;;;;;;5082716;28;19931;-69
2021/12/24 08:07:52;;;;;;;;;;;;;;;;;;5084631;28;19928;-70
2021/12/24 08:10:24;;;;;;;;;;;;;;;;;;5083838;28;20000;-71
2021/12/24 08:12:57;;;;;;;;;;;;;;;;;;5085544;28;19971;-72
2021/12/24 08:15:27;;;;;;;;;;;;;;;;;;5082522;28;19924;-70
2021/12/24 08:17:57;;;;;;;;;;;;;;;;;;5085631;28;19923;-68
2021/12/24 08:20:26;;;;;;;;;;;;;;;;;;5084781;28;21014;-70
2021/12/24 08:22:58;;;;;;;;;;;;;;;;;;5076578;28;19928;-72
2021/12/24 08:25:25;;;;;;;;;;;;;;;;;;5095191;28;19928;-70
2021/12/24 08:27:59;;;;;;;;;;;;;;;;;;5083192;28;19961;-70
2021/12/24 08:30:29;;;;;;;;;;;;;;;;;;5086062;28;20315;-72
2021/12/24 08:33:01;;;;;;;;;;;;;;;;;;5069016;28;19929;-73
2021/12/24 08:35:37;;;;;;;;;;;;;;;;;;5081932;28;19924;-75
2021/12/24 08:38:04;;;;;;;;;;;;;;;;;;5063690;28;19924;-75
2021/12/24 08:40:34;;;;;;;;;;;;;;;;;;5082699;28;19932;-74
2021/12/24 08:43:08;;;;;;;;;;;;;;;;;;5081110;28;19928;-74
2021/12/24 08:45:37;;;;;;;;;;;;;;;;;;5082828;28;19928;-75
2021/12/24 08:48:07;;;;;;;;;;;;;;;;;;5079701;28;19959;-73
2021/12/24 08:50:36;;;;;;;;;;;;;;;;;;5085135;28;20486;-71
2021/12/24 08:53:07;;;;;;;;;;;;;;;;;;5063745;28;19929;-70
2021/12/24 08:55:36;;;;;;;;;;;;;;;;;;5084175;28;19924;-71
2021/12/24 08:58:05;;;;;;;;;;;;;;;;;;5079930;28;19928;-71
2021/12/24 09:00:33;;;;;;;;;;;;;;;;;;5083766;28;20015;-74
2021/12/24 09:03:10;;;;;;;;;;;;;;;;;;5064688;28;19931;-70
2021/12/24 09:05:42;;;;;;;;;;;;;;;;;;5082536;28;20389;-71
2021/12/24 09:08:15;;;;;;;;;;;;;;;;;;5084626;28;19924;-71
2021/12/24 09:10:46;;;;;;;;;;;;;;;;;;5065061;28;19953;-71
2021/12/24 09:13:13;;;;;;;;;;;;;;;;;;5079805;28;19934;-72
2021/12/24 09:15:43;;;;;;;;;;;;;;;;;;5084416;28;19924;-70
2021/12/24 09:18:19;;;;;;;;;;;;;;;;;;5090190;28;19936;-70
2021/12/24 09:20:49;;;;;;;;;;;;;;;;;;5088930;28;19989;-68
2021/12/24 09:23:20;;;;;;;;;;;;;;;;;;5076463;28;19935;-67
2021/12/24 09:26:11;;;;;;;;;;;;;;;;;;5072241;28;19928;-71
2021/12/24 09:28:40;;;;;;;;;;;;;;;;;;5074580;28;19932;-71
2021/12/24 09:31:08;;;;;;;;;;;;;;;;;;5084683;28;20334;-72
2021/12/24 09:33:40;;;;;;;;;;;;;;;;;;5084619;28;19924;-71
2021/12/24 09:36:10;;;;;;;;;;;;;;;;;;5059110;28;19925;-69
2021/12/24 09:38:37;;;;;;;;;;;;;;;;;;5086798;28;19924;-71
2021/12/24 09:41:09;;;;;;;;;;;;;;;;;;5087260;28;19931;-70
2021/12/24 09:43:37;;;;;;;;;;;;;;;;;;5066052;28;19992;-71
2021/12/24 09:46:09;;;;;;;;;;;;;;;;;;5082281;28;19924;-72
2021/12/24 09:48:40;;;;;;;;;;;;;;;;;;5080566;28;19932;-73
2021/12/24 09:51:10;;;;;;;;;;;;;;;;;;5089116;28;19928;-70
2021/12/24 09:53:39;;;;;;;;;;;;;;;;;;5086132;28;19924;-69
2021/12/24 09:56:12;;;;;;;;;;;;;;;;;;5083771;28;19924;-73
2021/12/24 09:58:42;;;;;;;;;;;;;;;;;;5073272;28;19924;-73
2021/12/24 10:01:12;;;;;;;;;;;;;;;;;;5086433;28;19932;-70
2021/12/24 10:03:44;;;;;;;;;;;;;;;;;;5086822;28;20370;-72
2021/12/24 10:06:16;;;;;;;;;;;;;;;;;;5069564;28;20797;-69
2021/12/24 10:08:47;;;;;;;;;;;;;;;;;;5091814;28;20448;-71
2021/12/24 10:11:16;;;;;;;;;;;;;;;;;;5083563;28;19939;-72
2021/12/24 10:13:46;;;;;;;;;;;;;;;;;;5088626;28;19924;-72
2021/12/24 10:16:19;;;;;;;;;;;;;;;;;;5087654;28;19924;-72
2021/12/24 10:18:50;;;;;;;;;;;;;;;;;;5078490;28;20410;-75
2021/12/24 10:21:22;;;;;;;;;;;;;;;;;;5084521;28;19933;-72
2021/12/24 10:23:56;;;;;;;;;;;;;;;;;;5086781;28;19931;-70
2021/12/24 10:26:25;;;;;;;;;;;;;;;;;;5090618;28;19943;-70
2021/12/24 10:28:57;;;;;;;;;;;;;;;;;;5092974;28;19931;-70
2021/12/24 10:31:29;;;;;;;;;;;;;;;;;;5086991;28;20023;-72
2021/12/24 10:33:57;;;;;;;;;;;;;;;;;;5082493;28;20095;-70
2021/12/24 10:36:29;;;;;;;;;;;;;;;;;;5081143;28;19924;-72
2021/12/24 10:39:01;;;;;;;;;;;;;;;;;;5071712;28;19985;-71
2021/12/24 10:41:29;;;;;;;;;;;;;;;;;;5088692;28;19932;-70
2021/12/24 10:43:57;;;;;;;;;;;;;;;;;;5079926;28;19924;-69
2021/12/24 10:46:28;;;;;;;;;;;;;;;;;;5079058;28;20472;-70
2021/12/24 10:49:02;;;;;;;;;;;;;;;;;;5082753;28;19932;-77
2021/12/24 10:54:20;;;;;;;;;;;;;;;;;;5059625;28;20447;-72
2021/12/24 10:56:53;;;;;;;;;;;;;;;;;;5084957;28;19923;-73
2021/12/24 10:59:22;;;;;;;;;;;;;;;;;;5081975;28;20016;-71
2021/12/24 11:01:54;;;;;;;;;;;;;;;;;;5068249;28;19947;-70
2021/12/24 11:04:25;;;;;;;;;;;;;;;;;;5083122;28;20009;-71
2021/12/24 11:06:52;;;;;;;;;;;;;;;;;;5081258;28;19932;-73
2021/12/24 11:09:24;;;;;;;;;;;;;;;;;;5087188;28;19928;-73
2021/12/24 11:11:55;;;;;;;;;;;;;;;;;;5067724;28;19988;-72
2021/12/24 11:14:25;;;;;;;;;;;;;;;;;;5086586;28;19935;-72
2021/12/24 11:16:55;;;;;;;;;;;;;;;;;;5069314;28;19924;-74
2021/12/24 11:19:27;;;;;;;;;;;;;;;;;;5090176;28;19923;-74
2021/12/24 11:22:05;;;;;;;;;;;;;;;;;;5081294;28;19928;-73
2021/12/24 11:24:40;;;;;;;;;;;;;;;;;;5082545;28;20313;-74
2021/12/24 11:27:14;;;;;;;;;;;;;;;;;;5083209;28;19959;-74
2021/12/24 11:29:48;;;;;;;;;;;;;;;;;;5087936;28;19928;-74
2021/12/24 11:32:17;;;;;;;;;;;;;;;;;;5081684;28;19928;-73
2021/12/24 11:34:52;;;;;;;;;;;;;;;;;;5082617;28;20019;-73
2021/12/24 11:37:23;;;;;;;;;;;;;;;;;;5087470;28;19924;-74
2021/12/24 11:39:55;;;;;;;;;;;;;;;;;;5085068;28;19924;-74
2021/12/24 11:42:25;;;;;;;;;;;;;;;;;;5085591;28;19931;-71
2021/12/24 11:44:55;;;;;;;;;;;;;;;;;;5076859;28;20239;-72
2021/12/24 11:47:33;;;;;;;;;;;;;;;;;;5084546;28;19935;-72
2021/12/24 11:50:02;;;;;;;;;;;;;;;;;;5082727;28;20365;-74
2021/12/24 11:52:40;;;;;;;;;;;;;;;;;;5082356;28;19932;-71
2021/12/24 11:55:12;;;;;;;;;;;;;;;;;;5085156;28;19924;-69
2021/12/24 11:57:47;;;;;;;;;;;;;;;;;;5082987;28;19924;-71
2021/12/24 12:00:20;;;;;;;;;;;;;;;;;;5080739;28;19976;-70
2021/12/24 12:02:50;;;;;;;;;;;;;;;;;;5083638;28;19931;-71
2021/12/24 12:05:25;;;;;;;;;;;;;;;;;;5083652;28;19923;-70
2021/12/24 12:08:00;;;;;;;;;;;;;;;;;;5084720;28;20283;-72
2021/12/24 12:10:40;;;;;;;;;;;;;;;;;;5066686;28;19924;-73
2021/12/24 12:13:10;;;;;;;;;;;;;;;;;;5084731;28;19977;-71
2021/12/24 12:15:40;;;;;;;;;;;;;;;;;;5087641;28;19934;-72
2021/12/24 12:18:13;;;;;;;;;;;;;;;;;;5081446;28;19930;-75
2021/12/24 12:20:49;;;;;;;;;;;;;;;;;;5079261;28;19935;-68
2021/12/24 12:23:25;;;;;;;;;;;;;;;;;;5078049;28;19934;-70
2021/12/24 12:25:54;;;;;;;;;;;;;;;;;;5085120;28;19931;-71
2021/12/24 12:28:26;;;;;;;;;;;;;;;;;;5073897;28;19932;-74
2021/12/24 12:31:00;;;;;;;;;;;;;;;;;;5076565;28;20054;-73
2021/12/24 12:33:34;;;;;;;;;;;;;;;;;;5078236;28;19924;-74
2021/12/24 12:36:02;;;;;;;;;;;;;;;;;;5074338;28;19985;-71
2021/12/24 12:38:30;;;;;;;;;;;;;;;;;;5081820;28;20457;-72
2021/12/24 12:40:59;;;;;;;;;;;;;;;;;;5076161;28;19938;-74
2021/12/24 12:43:28;;;;;;;;;;;;;;;;;;5079980;28;20319;-74
2021/12/24 12:46:02;;;;;;;;;;;;;;;;;;5080794;28;20285;-71
2021/12/24 12:48:33;;;;;;;;;;;;;;;;;;5085853;28;19928;-75
2021/12/24 12:51:02;;;;;;;;;;;;;;;;;;5081645;28;19939;-69
2021/12/24 12:53:39;;;;;;;;;;;;;;;;;;5081965;28;19966;-69
2021/12/24 12:56:06;;;;;;;;;;;;;;;;;;5085215;28;19946;-72
2021/12/24 12:58:36;;;;;;;;;;;;;;;;;;5064863;28;19924;-72
2021/12/24 13:01:12;;;;;;;;;;;;;;;;;;5082522;28;19924;-72
2021/12/24 13:03:43;;;;;;;;;;;;;;;;;;5062598;28;19928;-72
2021/12/24 13:06:17;;;;;;;;;;;;;;;;;;5081568;28;19932;-71
2021/12/24 13:08:49;;;;;;;;;;;;;;;;;;5087952;28;19924;-71
2021/12/24 13:11:23;;;;;;;;;;;;;;;;;;5082753;28;19981;-70
2021/12/24 13:14:08;;;;;;;;;;;;;;;;;;5072521;28;19939;-70
2021/12/24 13:16:39;;;;;;;;;;;;;;;;;;5097452;28;19924;-69
2021/12/24 13:19:26;;;;;;;;;;;;;;;;;;5085271;28;20342;-70
2021/12/24 13:24:45;;;;;;;;;;;;;;;;;;5085597;28;19924;-71
2021/12/24 13:27:12;;;;;;;;;;;;;;;;;;5093959;28;19935;-74
2021/12/24 13:29:41;;;;;;;;;;;;;;;;;;5076423;28;19932;-74
2021/12/24 13:32:11;;;;;;;;;;;;;;;;;;5094067;28;20369;-71
2021/12/24 13:34:40;;;;;;;;;;;;;;;;;;5076497;28;19935;-72
2021/12/24 13:37:09;;;;;;;;;;;;;;;;;;5093040;28;19949;-74
2021/12/24 13:39:41;;;;;;;;;;;;;;;;;;5075663;28;20685;-69
2021/12/24 13:42:10;;;;;;;;;;;;;;;;;;5100810;28;19988;-69
2021/12/24 13:44:41;;;;;;;;;;;;;;;;;;5088586;28;20498;-69
2021/12/24 13:47:22;;;;;;;;;;;;;;;;;;5084886;28;20294;-68
2021/12/24 13:50:11;;;;;;;;;;;;;;;;;;5084762;28;20347;-69
2021/12/24 13:55:35;;;;;;;;;;;;;;;;;;5084996;28;20015;-67
2021/12/24 13:58:02;;;;;;;;;;;;;;;;;;5086644;28;19924;-68
2021/12/24 14:00:35;;;;;;;;;;;;;;;;;;5083076;28;19924;-69
2021/12/24 14:03:09;;;;;;;;;;;;;;;;;;5085449;28;19924;-68
2021/12/24 14:05:39;;;;;;;;;;;;;;;;;;5085302;28;20247;-68
2021/12/24 14:08:10;;;;;;;;;;;;;;;;;;5087496;28;19935;-68
2021/12/24 14:10:38;;;;;;;;;;;;;;;;;;5074699;28;19951;-69
2021/12/24 14:13:19;;;;;;;;;;;;;;;;;;5068695;28;20027;-69
2021/12/24 14:16:01;;;;;;;;;;;;;;;;;;5066432;28;19928;-69
2021/12/24 14:18:48;;;;;;;;;;;;;;;;;;5058751;28;19936;-69
2021/12/24 14:23:55;;;;;;;;;;;;;;;;;;5064027;28;19932;-69
2021/12/24 14:26:24;;;;;;;;;;;;;;;;;;5063941;28;19932;-69
2021/12/24 14:28:52;;;;;;;;;;;;;;;;;;5062452;28;19924;-69
2021/12/24 14:31:23;;;;;;;;;;;;;;;;;;5066440;28;19932;-70
2021/12/24 14:33:54;;;;;;;;;;;;;;;;;;5065004;28;20377;-69
2021/12/24 14:36:23;;;;;;;;;;;;;;;;;;5061377;28;19924;-68
2021/12/24 14:38:54;;;;;;;;;;;;;;;;;;5065719;28;19924;-68
2021/12/24 14:41:36;;;;;;;;;;;;;;;;;;5055631;28;20017;-67
2021/12/24 14:44:09;;;;;;;;;;;;;;;;;;5063128;28;19929;-67
2021/12/24 14:46:42;;;;;;;;;;;;;;;;;;5064484;28;19940;-68
2021/12/24 14:49:13;;;;;;;;;;;;;;;;;;5073038;28;19928;-67
2021/12/24 14:51:42;;;;;;;;;;;;;;;;;;5075836;28;20050;-68
2021/12/24 14:54:15;;;;;;;;;;;;;;;;;;5061554;28;19925;-68
2021/12/24 14:56:43;;;;;;;;;;;;;;;;;;5066036;28;19951;-69
2021/12/24 14:59:13;;;;;;;;;;;;;;;;;;5063139;28;19924;-69
2021/12/24 15:01:47;;;;;;;;;;;;;;;;;;5064936;28;19929;-69
2021/12/24 15:04:18;;;;;;;;;;;;;;;;;;5062228;28;19936;-70
2021/12/24 15:06:47;;;;;;;;;;;;;;;;;;5059779;28;19925;-69
2021/12/24 15:09:27;;;;;;;;;;;;;;;;;;5062379;28;20504;-70
2021/12/24 15:11:57;;;;;;;;;;;;;;;;;;5067304;28;19951;-67
2021/12/24 15:14:31;;;;;;;;;;;;;;;;;;5083468;28;19928;-69
2021/12/24 15:17:03;;;;;;;;;;;;;;;;;;5085496;28;19931;-69
2021/12/24 15:19:34;;;;;;;;;;;;;;;;;;5083374;28;19931;-69
2021/12/24 15:22:04;;;;;;;;;;;;;;;;;;5080714;28;20031;-66
2021/12/24 15:24:35;;;;;;;;;;;;;;;;;;5089597;28;19963;-66
2021/12/24 15:27:05;;;;;;;;;;;;;;;;;;5096061;28;20807;-67
2021/12/24 15:29:45;;;;;;;;;;;;;;;;;;5079104;28;19935;-66
2021/12/24 15:32:16;;;;;;;;;;;;;;;;;;5089416;28;20018;-70
2021/12/24 15:34:47;;;;;;;;;;;;;;;;;;5081656;28;19932;-69
2021/12/24 15:37:20;;;;;;;;;;;;;;;;;;5089114;28;19935;-70
2021/12/24 15:39:52;;;;;;;;;;;;;;;;;;5086082;28;19936;-70
2021/12/24 15:42:24;;;;;;;;;;;;;;;;;;5089507;28;20453;-70
2021/12/24 15:44:54;;;;;;;;;;;;;;;;;;5081045;28;19978;-70
2021/12/24 15:47:25;;;;;;;;;;;;;;;;;;5081345;28;20014;-69
2021/12/24 15:49:56;;;;;;;;;;;;;;;;;;5082078;28;20590;-69
2021/12/24 15:52:27;;;;;;;;;;;;;;;;;;5065680;28;20694;-69
2021/12/24 15:54:56;;;;;;;;;;;;;;;;;;5081721;28;19929;-69
2021/12/24 15:57:27;;;;;;;;;;;;;;;;;;5083530;28;19939;-69
2021/12/24 15:59:55;;;;;;;;;;;;;;;;;;5082536;28;19980;-70
2021/12/24 16:02:26;;;;;;;;;;;;;;;;;;5079334;28;20651;-69
2021/12/24 16:04:58;;;;;;;;;;;;;;;;;;5083644;28;20469;-69
2021/12/24 16:07:27;;;;;;;;;;;;;;;;;;5068064;28;19936;-69
2021/12/24 16:09:54;;;;;;;;;;;;;;;;;;5084033;28;19924;-69
2021/12/24 16:12:29;;;;;;;;;;;;;;;;;;5082338;28;19932;-69
2021/12/24 16:15:00;;;;;;;;;;;;;;;;;;5082883;28;19932;-69
2021/12/24 16:17:32;;;;;;;;;;;;;;;;;;5081860;28;19931;-69
2021/12/24 16:19:59;;;;;;;;;;;;;;;;;;5077412;28;19939;-69
2021/12/24 16:22:28;;;;;;;;;;;;;;;;;;5079750;28;19963;-69
2021/12/24 16:24:58;;;;;;;;;;;;;;;;;;5079132;28;20644;-69
2021/12/24 16:27:29;;;;;;;;;;;;;;;;;;5082833;28;20006;-69
2021/12/24 16:30:01;;;;;;;;;;;;;;;;;;5076905;28;19928;-69
2021/12/24 16:32:35;;;;;;;;;;;;;;;;;;5081180;28;20408;-69
2021/12/24 16:35:04;;;;;;;;;;;;;;;;;;5083059;28;19932;-69
2021/12/24 16:37:35;;;;;;;;;;;;;;;;;;5080688;28;20242;-69
2021/12/24 16:40:04;;;;;;;;;;;;;;;;;;5081568;28;19935;-69
2021/12/24 16:42:34;;;;;;;;;;;;;;;;;;5080191;28;19932;-69
2021/12/24 16:45:06;;;;;;;;;;;;;;;;;;5085497;28;19959;-69
2021/12/24 16:47:36;;;;;;;;;;;;;;;;;;5086555;28;19936;-69
2021/12/24 16:50:07;;;;;;;;;;;;;;;;;;5082326;28;19928;-69
2021/12/24 16:52:34;;;;;;;;;;;;;;;;;;5084371;28;19992;-69
2021/12/24 16:55:05;;;;;;;;;;;;;;;;;;5083530;28;20441;-69
2021/12/24 16:57:36;;;;;;;;;;;;;;;;;;5086755;28;19984;-69
2021/12/24 17:00:10;;;;;;;;;;;;;;;;;;5085609;28;19928;-69
2021/12/24 17:02:44;;;;;;;;;;;;;;;;;;5087307;28;19925;-69
2021/12/24 17:05:25;;;;;;;;;;;;;;;;;;5089827;28;20518;-69
2021/12/24 17:07:55;;;;;;;;;;;;;;;;;;5072719;28;19976;-69
2021/12/24 17:10:25;;;;;;;;;;;;;;;;;;5076118;28;19939;-69
2021/12/24 17:12:53;;;;;;;;;;;;;;;;;;5080072;28;19981;-69
2021/12/24 17:15:31;;;;;;;;;;;;;;;;;;5085905;28;19931;-69
2021/12/24 17:17:59;;;;;;;;;;;;;;;;;;5086046;28;19924;-69
2021/12/24 17:20:31;;;;;;;;;;;;;;;;;;5086494;28;19939;-69
2021/12/24 17:23:01;;;;;;;;;;;;;;;;;;5082780;28;19925;-69
2021/12/24 17:25:31;;;;;;;;;;;;;;;;;;5069151;28;19924;-69
2021/12/24 17:28:00;;;;;;;;;;;;;;;;;;5086777;28;19931;-69
2021/12/24 17:30:29;;;;;;;;;;;;;;;;;;5084935;28;19934;-69
2021/12/24 17:32:56;;;;;;;;;;;;;;;;;;5085236;28;19928;-69
2021/12/24 17:35:27;;;;;;;;;;;;;;;;;;5089313;28;19928;-69
2021/12/24 17:37:57;;;;;;;;;;;;;;;;;;5083124;28;19932;-69
2021/12/24 17:40:27;;;;;;;;;;;;;;;;;;5086136;28;19943;-68
2021/12/24 17:42:56;;;;;;;;;;;;;;;;;;5084639;28;19943;-68
2021/12/24 17:45:27;;;;;;;;;;;;;;;;;;5084738;28;19923;-68
2021/12/24 17:47:57;;;;;;;;;;;;;;;;;;5082404;28;19931;-69
2021/12/24 17:50:28;;;;;;;;;;;;;;;;;;5083347;28;20365;-69
2021/12/24 17:52:57;;;;;;;;;;;;;;;;;;5084417;28;19931;-69
2021/12/24 17:55:26;;;;;;;;;;;;;;;;;;5082013;28;19932;-69
2021/12/24 17:57:53;;;;;;;;;;;;;;;;;;5084890;28;19928;-69
2021/12/24 18:00:21;;;;;;;;;;;;;;;;;;5062062;28;19928;-68
2021/12/24 18:02:52;;;;;;;;;;;;;;;;;;5087584;28;19928;-69
2021/12/24 18:05:24;;;;;;;;;;;;;;;;;;5087215;28;19928;-68
2021/12/24 18:07:51;;;;;;;;;;;;;;;;;;5078774;28;19924;-68
2021/12/24 18:10:18;;;;;;;;;;;;;;;;;;5082485;28;19985;-69
2021/12/24 18:12:51;;;;;;;;;;;;;;;;;;5079973;28;19959;-69
2021/12/24 18:15:20;;;;;;;;;;;;;;;;;;5083871;28;20245;-68
2021/12/24 18:17:51;;;;;;;;;;;;;;;;;;5085838;28;19954;-68
2021/12/24 18:20:22;;;;;;;;;;;;;;;;;;5084017;28;20069;-68
2021/12/24 18:22:49;;;;;;;;;;;;;;;;;;5086116;28;19932;-68
2021/12/24 18:25:16;;;;;;;;;;;;;;;;;;5086792;28;20287;-68
2021/12/24 18:27:46;;;;;;;;;;;;;;;;;;5080674;28;20422;-68
2021/12/24 18:30:23;;;;;;;;;;;;;;;;;;5079757;28;19928;-68
2021/12/24 18:32:53;;;;;;;;;;;;;;;;;;5082505;28;20015;-69
2021/12/24 18:35:25;;;;;;;;;;;;;;;;;;5087074;28;19933;-68
2021/12/24 18:38:09;;;;;;;;;;;;;;;;;;5080106;28;19925;-68
2021/12/24 18:40:40;;;;;;;;;;;;;;;;;;5087984;28;19962;-68
2021/12/24 18:43:09;;;;;;;;;;;;;;;;;;5086344;28;20494;-68
2021/12/24 18:45:38;;;;;;;;;;;;;;;;;;5067471;28;19928;-68
2021/12/24 18:48:05;;;;;;;;;;;;;;;;;;5084504;28;19928;-68
2021/12/24 18:50:36;;;;;;;;;;;;;;;;;;5082735;28;19935;-68
2021/12/24 18:53:05;;;;;;;;;;;;;;;;;;5084998;28;19928;-69
2021/12/24 18:55:36;;;;;;;;;;;;;;;;;;5087497;28;19976;-68
2021/12/24 18:58:05;;;;;;;;;;;;;;;;;;5082867;28;19934;-68